Latest Weather Observations for Shay Gap

IDW60801

Issued at 3:32 pm WST Thursday 2 April 2015 (issued every 30 minutes, with the page automatically refreshed every 10 minutes)

About weather observations | Map of weather stations | Latest weather observations for WA | Other Formats
Station Details ID: 504045 Name: SHAY GAP Lat: -20.43 Lon: 120.13 Height: 173.83 m
Data from the previous 72 hours. | See also: Recent months for locations in Western Australia
Date/Time
WST
Temp
°C
App
Temp
°C
Dew
Point
Rel
Hum
%
Delta-T
°C
Wind Press
QNH
hPa
Press
MSL
hPa
Rain
since 9 am
mm
Dir
 
Spd
km/h
Gust
km/h
Spd
kts
Gust
kts
02/03:30pm 36.8 33.5 14.1 25 14.2 ESE 24 37 13 20 1008.5 1007.3 0.0
02/03:00pm 37.2 34.3 13.9 25 14.5 ESE 22 37 12 20 1008.7 1007.5 0.0
02/02:30pm 36.4 32.3 13.8 26 14.0 ESE 28 44 15 24 1008.9 1007.7 0.0
02/02:00pm 37.1 33.0 15.0 27 14.0 ESE 30 41 16 22 1009.3 1008.2 0.0
02/01:30pm 36.5 31.9 14.5 27 13.8 ESE 32 44 17 24 1009.5 1008.4 0.0
02/01:00pm 36.2 31.3 14.2 26 13.7 ESE 33 46 18 25 1009.8 1008.7 0.0
02/12:30pm 35.8 31.1 14.4 27 13.3 ESE 32 46 17 25 1010.4 1009.3 0.0
02/12:00pm 35.9 30.9 15.1 29 13.1 ESE 35 50 19 27 1011.1 1009.9 0.0
02/11:30am 35.8 31.3 15.0 29 13.1 ESE 32 43 17 23 1011.6 1010.4 0.0
02/11:00am 34.4 29.1 15.3 31 12.0 SE 37 50 20 27 1012.3 1011.1 0.0
02/10:30am 33.6 27.7 14.6 31 11.8 SE 39 57 21 31 1012.3 1011.1 0.0
02/10:21am 33.0 26.9 14.1 32 11.6 SE 39 57 21 31 1012.5 1011.3 0.0
02/10:00am 32.5 27.3 14.6 34 11.1 SE 35 48 19 26 1012.6 1011.4 0.0
02/09:30am 32.1 25.8 14.7 35 10.8 SE 41 52 22 28 1012.7 1011.5 0.0
02/09:00am 31.0 24.8 15.0 38 9.9 SE 41 54 22 29 1012.8 1011.6 0.0
02/08:30am 31.2 25.5 15.2 38 9.9 SE 39 50 21 27 1012.7 1011.5 0.0
02/08:02am 30.6 25.1 14.7 38 9.8 SE 37 57 20 31 1012.2 1011.0 0.0
02/08:00am 30.9 25.8 14.9 37 9.9 SE 35 48 19 26 1012.3 1011.1 0.0
02/07:30am 29.9 25.2 14.4 38 9.5 SE 32 43 17 23 1012.1 1010.9 0.0
02/07:13am 29.7 25.0 14.3 39 9.4 SE 32 50 17 27 1011.9 1010.7 0.0
02/07:00am 29.5 24.7 14.1 39 9.3 SE 32 41 17 22 1011.8 1010.6 0.0
02/06:30am 28.9 24.6 14.3 40 8.9 SE 30 41 16 22 1011.6 1010.4 0.0
02/06:00am 29.1 24.7 14.1 40 9.1 SSE 30 41 16 22 1011.7 1010.5 0.0
02/05:30am 29.7 25.6 13.9 38 9.6 SSE 28 41 15 22 1011.4 1010.2 0.0
02/05:00am 29.9 26.2 14.0 37 9.6 SSE 26 33 14 18 1011.0 1009.8 0.0
02/04:30am 30.2 26.9 13.9 37 9.9 SSE 24 30 13 16 1010.8 1009.6 0.0
02/04:00am 30.5 27.1 13.7 35 10.2 SSE 24 32 13 17 1010.4 1009.3 0.0
02/03:30am 30.4 27.9 14.1 37 9.9 SSE 20 26 11 14 1010.5 1009.4 0.0
02/03:00am 30.4 28.2 14.5 38 9.7 S 19 26 10 14 1010.4 1009.3 0.0
02/02:30am 30.1 28.0 14.6 39 9.5 S 19 22 10 12 1010.6 1009.5 0.0
02/02:00am 28.9 28.5 16.1 46 8.0 SSE 13 17 7 9 1010.9 1009.7 0.0
02/01:30am 29.5 29.7 16.7 46 8.1 S 11 17 6 9 1010.9 1009.7 0.0
02/01:00am 29.1 29.4 17.0 48 7.7 S 11 13 6 7 1011.1 1009.9 0.0
02/12:30am 29.8 30.1 16.9 45 8.2 SSW 11 15 6 8 1011.3 1010.1 0.0
02/12:00am 29.6 29.9 17.1 47 7.9 SW 11 15 6 8 1011.5 1010.3 0.0
 
Date/Time
WST
Temp
°C
App
Temp
°C
Dew
Point
Rel
Hum
%
Delta-T
°C
Wind Press
QNH
hPa
Press
MSL
hPa
Rain
since 9 am
mm
Dir
 
Spd
km/h
Gust
km/h
Spd
kts
Gust
kts
01/11:30pm 29.6 30.2 17.8 49 7.6 WSW 11 13 6 7 1011.6 1010.4 0.0
01/11:00pm 30.0 30.3 17.1 46 8.2 WSW 11 13 6 7 1011.6 1010.4 0.0
01/10:30pm 31.8 31.0 16.1 38 9.9 WSW 15 20 8 11 1011.6 1010.4 0.0
01/10:00pm 32.5 31.1 15.5 36 10.6 SW 17 19 9 10 1011.5 1010.3 0.0
01/09:30pm 32.4 31.5 15.8 36 10.4 SW 15 17 8 9 1011.5 1010.3 0.0
01/09:00pm 32.0 31.0 15.5 37 10.3 SW 15 15 8 8 1011.4 1010.2 0.0
01/08:30pm 32.1 31.6 16.0 38 10.1 SW 13 15 7 8 1011.1 1009.9 0.0
01/08:00pm 32.5 32.5 16.3 37 10.3 SW 11 13 6 7 1010.8 1009.6 0.0
01/07:30pm 33.3 32.9 16.2 36 10.8 SW 13 15 7 8 1010.4 1009.3 0.0
01/07:00pm 33.7 33.5 15.7 34 11.4 SW 11 13 6 7 1010.2 1009.1 0.0
01/06:30pm 34.6 34.7 15.5 32 12.1 SSW 9 13 5 7 1010.0 1008.9 0.0
01/06:00pm 35.5 34.9 14.7 28 13.0 S 11 15 6 8 1009.8 1008.7 0.0
01/05:30pm 37.2 36.4 13.9 25 14.5 S 11 15 6 8 1009.7 1008.6 0.0
01/05:00pm 37.7 36.8 13.7 24 14.9 SSW 11 19 6 10 1009.6 1008.5 0.0
01/04:30pm 38.4 38.0 14.2 23 15.2 SSE 9 13 5 7 1009.6 1008.5 0.0
01/04:00pm 38.2 37.6 14.7 24 14.8 S 11 17 6 9 1009.7 1008.6 0.0
01/03:30pm 38.2 37.0 14.1 24 15.1 S 13 22 7 12 1009.9 1008.8 0.0
01/03:00pm 38.2 37.8 14.1 24 15.1 S 9 17 5 9 1010.1 1009.0 0.0
01/02:30pm 37.7 37.4 14.3 25 14.7 NE 9 20 5 11 1010.5 1009.4 0.0
01/02:00pm 37.9 37.6 14.5 25 14.7 SE 9 13 5 7 1011.0 1009.8 0.0
01/01:30pm 37.3 36.1 14.0 25 14.5 SE 13 22 7 12 1011.5 1010.3 0.0
01/01:00pm 37.2 35.4 14.5 26 14.2 S 17 33 9 18 1011.8 1010.6 0.0
01/12:30pm 37.3 35.2 15.2 27 14.0 S 20 32 11 17 1012.3 1011.1 0.0
01/12:00pm 36.7 35.9 15.2 27 13.6 SE 13 28 7 15 1012.8 1011.6 0.0
01/11:30am 36.3 34.3 14.9 28 13.5 S 19 30 10 16 1013.3 1012.1 0.0
01/11:00am 35.5 33.0 14.2 28 13.2 SSE 20 32 11 17 1013.8 1012.6 0.0
01/10:30am 35.2 32.8 14.5 29 12.9 SE 20 30 11 16 1014.2 1013.1 0.0
01/10:00am 34.9 32.6 14.2 28 12.8 SSE 19 24 10 13 1014.6 1013.5 0.0
01/09:30am 33.8 31.7 15.3 33 11.6 SSE 20 28 11 15 1014.8 1013.7 0.0
01/09:00am 32.6 30.9 14.7 34 11.1 SE 17 26 9 14 1015.0 1013.9 0.0
01/08:30am 31.8 30.9 16.9 40 9.5 SSE 17 20 9 11 1015.1 1014.0 0.0
01/08:00am 30.5 29.8 18.6 49 7.7 S 20 28 11 15 1015.0 1013.9 0.0
01/07:30am 29.8 29.2 18.9 52 7.1 S 20 26 11 14 1014.7 1013.4 0.0
01/07:00am 28.9 28.9 18.9 54 6.5 SSW 17 20 9 11 1014.5 1013.2 0.0
01/06:30am 27.7 28.6 19.2 60 5.5 S 13 15 7 8 1014.4 1013.1 0.0
01/06:00am 28.1 28.3 19.3 58 5.7 S 17 22 9 12 1014.3 1013.0 0.0
01/05:30am 26.7 27.6 18.3 60 5.4 S 11 15 6 8 1014.0 1012.7 0.0
01/05:00am 27.5 28.3 18.2 57 6.0 SSW 11 15 6 8 1013.7 1012.4 0.0
01/04:30am 27.9 28.0 18.3 56 6.2 SW 15 19 8 10 1013.3 1012.0 0.0
01/04:00am 27.8 28.4 18.5 57 6.0 SW 13 17 7 9 1013.3 1012.0 0.0
01/03:30am 27.8 28.1 18.8 58 5.8 SW 15 19 8 10 1013.1 1011.8 0.0
01/03:00am 28.0 28.6 18.7 57 6.0 SW 13 19 7 10 1013.0 1011.7 0.0
01/02:30am 28.6 28.1 18.7 55 6.4 WSW 19 24 10 13 1013.0 1011.7 0.0
01/02:00am 28.7 28.3 18.8 55 6.4 WSW 19 24 10 13 1013.0 1011.7 0.0
01/01:30am 29.1 28.7 18.8 53 6.7 WSW 19 26 10 14 1013.2 1011.9 0.0
01/01:00am 29.3 28.6 18.7 52 6.9 WSW 20 28 11 15 1013.5 1012.2 0.0
01/12:30am 29.6 29.1 19.0 53 6.9 WSW 20 28 11 15 1013.7 1012.4 0.0
01/12:00am 29.3 29.1 19.3 55 6.5 WSW 19 24 10 13 1013.9 1012.6 0.0
 
Date/Time
WST
Temp
°C
App
Temp
°C
Dew
Point
Rel
Hum
%
Delta-T
°C
Wind Press
QNH
hPa
Press
MSL
hPa
Rain
since 9 am
mm
Dir
 
Spd
km/h
Gust
km/h
Spd
kts
Gust
kts
31/11:30pm 29.3 29.2 19.6 56 6.4 WSW 19 24 10 13 1014.2 1012.9 0.0
31/11:00pm 29.6 29.2 19.0 53 6.9 W 19 26 10 14 1014.1 1012.8 0.0
31/10:30pm 30.0 29.2 18.4 49 7.5 W 20 26 11 14 1014.4 1013.1 0.0
31/10:00pm 29.8 29.9 19.2 53 6.9 W 17 24 9 13 1014.5 1013.2 0.0
31/09:30pm 30.2 29.9 18.3 49 7.7 WNW 17 22 9 12 1014.5 1013.2 0.0
31/09:00pm 30.7 30.3 18.8 49 7.8 WNW 19 24 10 13 1014.4 1013.1 0.0
31/08:30pm 31.1 30.6 19.1 48 7.9 WNW 20 26 11 14 1014.2 1012.9 0.0
31/08:00pm 31.5 31.7 18.5 46 8.5 W 15 17 8 9 1013.9 1012.6 0.0
31/07:30pm 32.0 31.6 17.1 41 9.5 W 15 20 8 11 1013.5 1012.2 0.0
31/07:00pm 32.4 31.8 16.7 39 10.0 W 15 24 8 13 1013.1 1011.8 0.0
31/06:30pm 32.5 32.5 17.2 40 9.8 WSW 13 17 7 9 1012.6 1011.2 0.0
31/06:00pm 31.6 29.4 18.6 46 8.5 W 28 37 15 20 1012.3 1010.9 0.0
31/05:30pm 34.1 33.6 16.9 36 11.0 W 15 32 8 17 1011.9 1010.5 0.0
31/05:00pm 36.2 36.1 15.9 30 12.9 S 11 13 6 7 1011.6 1010.2 0.0
31/04:30pm 36.5 36.4 16.1 29 13.0 SSW 11 15 6 8 1011.5 1010.1 0.0
31/04:00pm 36.7 35.4 15.8 29 13.3 SSW 17 24 9 13 1011.3 1009.9 0.0
31/03:30pm 37.5 36.0 15.3 26 14.1 S 17 28 9 15 1011.4 1010.0 0.0
31/03:00pm 37.0 37.1 15.5 28 13.7 SW 9 15 5 8 1011.4 1010.0 0.0
31/02:30pm 37.1 37.2 15.5 27 13.7 SSW 9 13 5 7 1011.5 1010.1 0.0
31/02:00pm 37.3 37.3 15.2 27 14.0 W 9 15 5 8 1011.9 1010.5 0.0
31/01:30pm 36.6 36.8 15.7 29 13.3 S 9 20 5 11 1012.2 1010.8 0.0
31/01:00pm 36.6 36.0 15.7 29 13.3 WSW 13 22 7 12 1012.7 1011.3 0.0
31/12:30pm 36.3 35.0 15.9 29 13.0 WSW 17 28 9 15 1013.1 1011.8 0.0
31/12:00pm 35.9 34.9 15.6 30 12.9 W 15 20 8 11 1013.7 1012.4 0.0
31/11:30am 36.3 36.4 17.4 32 12.3 S 13 20 7 11 1014.2 1012.9 0.0
31/11:00am 34.8 33.4 16.6 33 11.7 SW 19 26 10 14 1014.7 1013.4 0.0
31/10:30am 34.3 33.7 17.5 36 10.9 SSW 17 26 9 14 1015.2 1013.9 0.0
31/10:00am 33.5 32.3 17.6 38 10.3 SW 20 28 11 15 1015.4 1014.1 0.0
31/09:30am 32.5 31.5 17.5 40 9.7 SW 19 26 10 14 1015.4 1014.1 0.0
31/09:00am 32.0 30.7 18.2 43 9.0 SSW 22 30 12 16 1015.5 1014.2 0.0
31/08:30am 31.2 30.3 18.2 46 8.4 SSW 20 30 11 16 1015.5 1014.2 0.0
31/08:00am 30.9 30.2 18.3 47 8.2 SSW 19 24 10 13 1015.6 1014.3 0.0
31/07:30am 30.1 30.3 18.5 49 7.5 SSW 15 20 8 11 1015.6 1014.3 0.0
31/07:00am 28.3 28.6 18.7 56 6.2 SSW 15 17 8 9 1015.6 1014.3 0.0
31/06:30am 28.0 28.3 18.7 57 6.0 SSW 15 19 8 10 1015.3 1014.0 0.0
31/06:00am 28.0 28.0 19.0 58 5.8 SW 17 20 9 11 1015.1 1013.8 0.0
31/05:30am 28.0 28.0 19.0 58 5.8 SW 17 22 9 12 1014.9 1013.6 0.0
31/05:00am 28.0 28.3 19.5 60 5.6 SW 17 20 9 11 1014.8 1013.5 0.0
31/04:30am 27.8 28.2 19.8 61 5.2 SW 17 22 9 12 1014.5 1013.2 0.0
31/04:00am 27.8 28.2 19.8 61 5.2 SW 17 20 9 11 1014.2 1012.9 0.0
31/03:30am 28.3 28.7 19.8 60 5.6 WSW 17 22 9 12 1014.0 1012.7 0.0
31/03:00am 28.3 29.1 19.8 60 5.6 WSW 15 20 8 11 1014.1 1012.8 0.0
31/02:30am 28.3 29.1 19.8 60 5.6 W 15 20 8 11 1014.0 1012.7 0.0
31/02:00am 28.2 29.2 20.2 62 5.3 W 15 20 8 11 1014.0 1012.7 0.0
31/01:30am 28.2 29.7 20.5 63 5.1 W 13 17 7 9 1014.1 1012.8 0.0
31/01:00am 28.3 29.5 20.6 63 5.1 WSW 15 20 8 11 1014.1 1012.8 0.0
31/12:30am 28.2 29.2 20.2 62 5.3 WSW 15 17 8 9 1014.3 1013.0 0.0
31/12:00am 28.3 29.8 19.8 60 5.6 WSW 11 13 6 7 1014.5 1013.2 0.0
 
Date/Time
WST
Temp
°C
App
Temp
°C
Dew
Point
Rel
Hum
%
Delta-T
°C
Wind Press
QNH
hPa
Press
MSL
hPa
Rain
since 9 am
mm
Dir
 
Spd
km/h
Gust
km/h
Spd
kts
Gust
kts
30/11:30pm 28.7 29.5 19.1 56 6.3 WSW 13 17 7 9 1014.7 1013.4 0.0
30/11:00pm 29.0 29.9 19.3 55 6.3 W 13 15 7 8 1014.9 1013.6 0.0
30/10:30pm 29.3 30.0 19.6 56 6.4 W 15 19 8 10 1015.3 1014.0 0.0
30/10:00pm 28.9 31.1 21.1 62 5.2 W 11 15 6 8 1015.6 1014.3 0.0
30/09:30pm 28.5 30.8 21.3 65 4.8 W 11 13 6 7 1015.6 1014.3 0.0
30/09:00pm 29.5 32.1 20.1 57 6.2 NW 6 7 3 4 1015.5 1014.2 0.0
30/08:30pm 29.4 31.4 20.0 57 6.2 WNW 9 13 5 7 1015.4 1014.1 0.0
30/08:00pm 29.6 31.2 19.9 56 6.4 WNW 11 15 6 8 1015.4 1014.1 0.0
30/07:30pm 29.8 31.5 20.1 56 6.4 NW 11 15 6 8 1015.1 1013.8 0.0
30/07:00pm 30.3 32.1 19.6 52 7.0 NNW 9 11 5 6 1014.6 1013.3 0.0
30/06:30pm 30.4 31.7 19.4 51 7.2 WNW 11 13 6 7 1014.1 1012.8 0.0
30/06:00pm 30.8 32.2 19.5 51 7.4 WNW 11 15 6 8 1013.8 1012.5 0.0
30/05:30pm 31.3 32.0 19.6 49 7.7 NW 15 20 8 11 1013.5 1012.2 0.0
30/05:00pm 32.2 31.6 18.8 45 8.8 NNW 20 26 11 14 1013.3 1012.0 0.0
30/04:30pm 33.0 32.4 18.4 42 9.5 WNW 19 24 10 13 1013.0 1011.7 0.0
30/04:00pm 35.1 33.1 11.5 24 14.1 ESE 13 19 7 10 1012.4 1011.0 0.0

Other Formats:

Comma delimited format used in spreadsheet applications
http://www.bom.gov.au/fwo/IDW60801/IDW60801.99311.axf

JavaScript Object Notation format (JSON) in row-major order
http://www.bom.gov.au/fwo/IDW60801/IDW60801.99311.json